createdAt,value
2017-05-15T00:00:12.083Z,102116.61
2017-05-15T00:02:39.707Z,102119.47
2017-05-15T00:05:07.216Z,102124.09
2017-05-15T00:07:34.831Z,102118.95
2017-05-15T00:10:02.421Z,102119.36
2017-05-15T00:12:30.033Z,102123.88
2017-05-15T00:14:57.556Z,102118.84
2017-05-15T00:17:25.271Z,102120.53
2017-05-15T00:19:52.823Z,102129.11
2017-05-15T00:22:20.389Z,102122.48
2017-05-15T00:24:47.995Z,102124.70
2017-05-15T00:27:15.552Z,102126.66
2017-05-15T00:29:43.107Z,102123.92
2017-05-15T00:32:10.656Z,102127.91
2017-05-15T00:34:38.564Z,102125.75
2017-05-15T00:37:06.112Z,102122.95
2017-05-15T00:39:33.646Z,102125.58
2017-05-15T00:42:01.253Z,102117.68
2017-05-15T00:44:28.795Z,102125.88
2017-05-15T00:46:56.386Z,102124.28
2017-05-15T00:49:23.939Z,102127.89
2017-05-15T00:51:51.897Z,102132.39
2017-05-15T00:54:19.424Z,102137.08
2017-05-15T00:56:46.966Z,102140.45
2017-05-15T00:59:14.540Z,102137.71
2017-05-15T01:01:42.095Z,102142.96
2017-05-15T01:04:09.792Z,102146.05
2017-05-15T01:06:37.313Z,102151.94
2017-05-15T01:09:04.833Z,102156.72
2017-05-15T01:11:32.406Z,102158.26
2017-05-15T01:13:59.952Z,102166.16
2017-05-15T01:16:27.629Z,102169.02
2017-05-15T01:18:55.239Z,102171.79
2017-05-15T01:21:23.164Z,102171.78
2017-05-15T01:23:50.736Z,102179.08
2017-05-15T01:26:18.336Z,102184.31
2017-05-15T01:28:45.900Z,102196.86
2017-05-15T01:31:13.411Z,102196.65
2017-05-15T01:33:40.984Z,102198.12
2017-05-15T01:36:08.516Z,102199.16
2017-05-15T01:38:36.273Z,102198.94
2017-05-15T01:41:03.816Z,102196.45
2017-05-15T01:43:31.325Z,102191.73
2017-05-15T01:45:58.888Z,102194.79
2017-05-15T01:48:26.407Z,102196.49
2017-05-15T01:50:54.026Z,102192.31
2017-05-15T01:53:21.579Z,102199.86
2017-05-15T01:55:49.486Z,102199.77
2017-05-15T01:58:17.023Z,102211.83
2017-05-15T02:00:44.562Z,102202.06
2017-05-15T02:03:12.121Z,102213.77
2017-05-15T02:05:39.667Z,102204.23
2017-05-15T02:08:07.231Z,102216.87
2017-05-15T02:10:34.759Z,102218.86
2017-05-15T02:13:02.494Z,102221.56
2017-05-15T02:15:30.052Z,102222.31
2017-05-15T02:17:57.583Z,102225.56
2017-05-15T02:20:25.251Z,102224.81
2017-05-15T02:22:52.761Z,102223.47
2017-05-15T02:25:20.310Z,102226.37
2017-05-15T02:27:47.870Z,102228.05
2017-05-15T02:30:15.425Z,102230.24
2017-05-15T02:32:43.151Z,102234.33
2017-05-15T02:35:10.655Z,102229.95
2017-05-15T02:37:38.164Z,102229.73
2017-05-15T02:40:05.751Z,102233.78
2017-05-15T02:42:33.291Z,102237.78
2017-05-15T02:45:00.860Z,102238.08
2017-05-15T02:47:28.367Z,102241.35
2017-05-15T02:49:56.056Z,102243.98
2017-05-15T02:52:23.556Z,102236.98
2017-05-15T02:54:51.053Z,102232.66
2017-05-15T02:57:18.650Z,102242.45
2017-05-15T02:59:46.195Z,102238.55
2017-05-15T03:02:13.762Z,102239.67
2017-05-15T03:04:41.274Z,102243.23
2017-05-15T03:07:09.117Z,102243.58
2017-05-15T03:09:36.632Z,102246.72
2017-05-15T03:12:04.183Z,102245.97
2017-05-15T03:14:31.731Z,102244.42
2017-05-15T03:16:59.256Z,102245.35
2017-05-15T03:19:26.847Z,102244.38
2017-05-15T03:21:54.486Z,102251.63
2017-05-15T03:24:22.256Z,102251.23
2017-05-15T03:26:49.792Z,102254.68
2017-05-15T03:29:17.313Z,102250.70
2017-05-15T03:31:44.902Z,102249.70
2017-05-15T03:34:12.486Z,102251.18
2017-05-15T03:36:40.161Z,102253.32
2017-05-15T03:39:07.697Z,102258.30
2017-05-15T03:41:35.209Z,102254.15
2017-05-15T03:44:02.772Z,102254.78
2017-05-15T03:46:30.303Z,102261.91
2017-05-15T03:48:57.885Z,102259.30
2017-05-15T03:51:25.508Z,102272.88
2017-05-15T03:53:53.149Z,102276.30
2017-05-15T03:56:20.748Z,102277.28
2017-05-15T03:58:48.266Z,102283.04
2017-05-15T04:01:15.903Z,102284.09
2017-05-15T04:03:43.429Z,102284.27
2017-05-15T04:06:11.103Z,102292.98
2017-05-15T04:08:38.608Z,102292.09
2017-05-15T04:11:06.163Z,102292.18
2017-05-15T04:13:33.764Z,102292.89
2017-05-15T04:16:01.291Z,102305.73
2017-05-15T04:18:28.919Z,102301.06
2017-05-15T04:20:56.419Z,102307.29
2017-05-15T04:23:23.997Z,102306.53
2017-05-15T04:25:51.531Z,102302.47
2017-05-15T04:28:19.208Z,102311.20
2017-05-15T04:30:46.751Z,102312.89
2017-05-15T04:33:14.271Z,102310.89
2017-05-15T04:35:41.973Z,102306.62
2017-05-15T04:38:09.491Z,102306.39
2017-05-15T04:40:37.175Z,102310.09
2017-05-15T04:43:04.787Z,102312.48
2017-05-15T04:45:32.710Z,102321.85
2017-05-15T04:48:00.214Z,102325.03
2017-05-15T04:50:27.744Z,102323.08
2017-05-15T04:52:55.306Z,102320.44
2017-05-15T04:55:22.843Z,102327.98
2017-05-15T04:57:50.371Z,102322.30
2017-05-15T05:00:17.861Z,102330.67
2017-05-15T05:02:45.691Z,102330.11
2017-05-15T05:05:13.287Z,102335.43
2017-05-15T05:07:40.794Z,102333.69
2017-05-15T05:10:08.358Z,102343.80
2017-05-15T05:12:35.867Z,102344.48
2017-05-15T05:15:03.691Z,102341.64
2017-05-15T05:17:31.195Z,102349.14
2017-05-15T05:20:07.821Z,102353.77
2017-05-15T05:22:47.116Z,102361.20
2017-05-15T05:25:26.836Z,102361.34
2017-05-15T05:28:05.748Z,102362.45
2017-05-15T05:30:37.391Z,102364.10
2017-05-15T05:33:16.603Z,102371.52
2017-05-15T05:36:09.748Z,102370.17
2017-05-15T05:38:39.882Z,102380.30
2017-05-15T05:41:17.599Z,102381.95
2017-05-15T05:43:47.652Z,102375.62
2017-05-15T05:46:15.191Z,102379.90
2017-05-15T05:48:47.863Z,102378.84
2017-05-15T05:51:18.821Z,102386.49
2017-05-15T05:53:46.491Z,102390.53
2017-05-15T05:56:27.703Z,102387.79
2017-05-15T05:58:55.637Z,102401.52
2017-05-15T06:01:34.891Z,102396.27
2017-05-15T06:04:14.300Z,102397.75
2017-05-15T06:06:53.862Z,102397.97
2017-05-15T06:09:33.643Z,102397.87
2017-05-15T06:12:12.879Z,102402.50
2017-05-15T06:14:52.319Z,102400.38
2017-05-15T06:17:31.479Z,102405.23
2017-05-15T06:19:58.688Z,102407.80
2017-05-15T06:22:37.877Z,102418.57
2017-05-15T06:25:17.073Z,102417.14
2017-05-15T06:27:44.555Z,102415.80
2017-05-15T06:30:12.043Z,102421.95
2017-05-15T06:32:39.550Z,102423.30
2017-05-15T06:35:07.060Z,102419.42
2017-05-15T06:37:40.107Z,102423.00
2017-05-15T06:40:19.304Z,102428.58
2017-05-15T06:42:46.916Z,102418.11
2017-05-15T06:45:14.394Z,102420.42
2017-05-15T06:47:42.015Z,102418.83
2017-05-15T06:50:09.506Z,102419.47
2017-05-15T06:52:36.979Z,102422.34
2017-05-15T06:55:04.531Z,102426.42
2017-05-15T06:57:32.003Z,102424.59
2017-05-15T06:59:59.676Z,102426.56
2017-05-15T07:02:27.164Z,102423.28
2017-05-15T07:04:54.665Z,102431.33
2017-05-15T07:07:21.800Z,102429.39
2017-05-15T07:09:49.336Z,102420.37
2017-05-15T07:12:16.876Z,102426.27
2017-05-15T07:14:44.434Z,102427.61
2017-05-15T07:17:11.949Z,102431.45
2017-05-15T07:19:39.532Z,102431.73
2017-05-15T07:22:07.072Z,102432.63
2017-05-15T07:24:34.752Z,102433.30
2017-05-15T07:27:02.272Z,102433.02
2017-05-15T07:29:29.808Z,102437.73
2017-05-15T07:31:57.398Z,102440.61
2017-05-15T07:34:24.927Z,102441.58
2017-05-15T07:36:52.487Z,102436.67
2017-05-15T07:39:20.007Z,102447.99
2017-05-15T07:41:47.711Z,102443.98
2017-05-15T07:44:15.237Z,102451.19
2017-05-15T07:46:42.795Z,102458.73
2017-05-15T07:49:10.371Z,102451.52
2017-05-15T07:51:37.900Z,102453.69
2017-05-15T07:54:05.580Z,102455.35
2017-05-15T07:56:33.125Z,102458.81
2017-05-15T07:59:00.654Z,102464.42
2017-05-15T08:01:28.239Z,102456.98
2017-05-15T08:03:55.776Z,102462.03
2017-05-15T08:06:23.459Z,102463.84
2017-05-15T08:08:50.984Z,102464.42
2017-05-15T08:11:18.508Z,102467.31
2017-05-15T08:13:46.076Z,102466.70
2017-05-15T08:16:13.638Z,102468.73
2017-05-15T08:18:41.184Z,102467.98
2017-05-15T08:21:08.707Z,102470.78
2017-05-15T08:23:36.383Z,102475.78
2017-05-15T08:26:03.905Z,102480.05
2017-05-15T08:28:31.427Z,102481.34
2017-05-15T08:30:59.383Z,102488.00
2017-05-15T08:33:26.945Z,102497.21
2017-05-15T08:35:54.623Z,102501.72
2017-05-15T08:38:22.139Z,102504.13
2017-05-15T08:40:49.720Z,102502.61
2017-05-15T08:43:17.292Z,102502.84
2017-05-15T08:45:44.830Z,102509.94
2017-05-15T08:48:12.416Z,102510.40
2017-05-15T08:50:39.984Z,102514.96
2017-05-15T08:53:07.655Z,102512.93
2017-05-15T08:55:35.198Z,102516.83
2017-05-15T08:58:02.731Z,102509.27
2017-05-15T09:00:30.287Z,102508.75
2017-05-15T09:02:57.808Z,102514.94
2017-05-15T09:05:25.376Z,102512.68
2017-05-15T09:07:52.896Z,102507.03
2017-05-15T09:10:20.467Z,102508.46
2017-05-15T09:12:48.069Z,102511.42
2017-05-15T09:15:15.763Z,102508.67
2017-05-15T09:17:43.303Z,102502.11
2017-05-15T09:20:10.836Z,102498.31
2017-05-15T09:22:38.415Z,102498.60
2017-05-15T09:25:05.949Z,102498.80
2017-05-15T09:27:33.528Z,102502.55
2017-05-15T09:30:01.091Z,102496.06
2017-05-15T09:32:28.804Z,102489.34
2017-05-15T09:34:56.372Z,102487.80
2017-05-15T09:37:23.964Z,102483.27
2017-05-15T09:39:51.552Z,102492.55
2017-05-15T09:42:19.192Z,102489.90
2017-05-15T09:44:46.771Z,102494.17
2017-05-15T09:47:14.306Z,102492.84
2017-05-15T09:49:41.867Z,102498.79
2017-05-15T09:52:09.394Z,102499.34
2017-05-15T09:54:36.960Z,102504.01
2017-05-15T09:57:04.488Z,102498.63
2017-05-15T09:59:32.164Z,102499.31
2017-05-15T10:01:59.680Z,102483.30
2017-05-15T10:04:27.189Z,102486.39
2017-05-15T10:06:54.744Z,102474.41
2017-05-15T10:09:22.273Z,102484.78
2017-05-15T10:11:50.083Z,102480.39
2017-05-15T10:14:17.660Z,102477.63
2017-05-15T10:16:45.276Z,102474.64
2017-05-15T10:19:12.840Z,102472.20
2017-05-15T10:21:40.440Z,102469.47
2017-05-15T10:24:08.021Z,102469.07
2017-05-15T10:26:35.543Z,102466.34
2017-05-15T10:29:03.099Z,102470.30
2017-05-15T10:31:30.652Z,102468.72
2017-05-15T10:33:58.401Z,102463.42
2017-05-15T10:36:25.917Z,102461.27
2017-05-15T10:38:53.436Z,102463.56
2017-05-15T10:41:21.051Z,102468.20
2017-05-15T10:43:48.565Z,102460.13
2017-05-15T10:46:16.425Z,102467.05
2017-05-15T10:48:44.016Z,102460.37
2017-05-15T10:51:11.608Z,102463.15
2017-05-15T10:53:39.213Z,102459.16
2017-05-15T10:56:06.856Z,102469.00
2017-05-15T10:58:34.593Z,102465.39
2017-05-15T11:01:02.160Z,102462.80
2017-05-15T11:03:29.683Z,102477.14
2017-05-15T11:05:57.278Z,102473.65
2017-05-15T11:08:24.815Z,102467.22
2017-05-15T11:10:52.392Z,102459.11
2017-05-15T11:13:19.912Z,102459.58
2017-05-15T11:15:47.563Z,102462.16
2017-05-15T11:18:15.092Z,102466.23
2017-05-15T11:20:42.680Z,102456.57
2017-05-15T11:23:10.246Z,102456.86
2017-05-15T11:25:37.771Z,102451.18
2017-05-15T11:28:05.481Z,102451.89
2017-05-15T11:30:33.006Z,102458.23
2017-05-15T11:33:00.536Z,102455.35
2017-05-15T11:35:28.176Z,102455.62
2017-05-15T11:37:55.756Z,102448.05
2017-05-15T11:40:23.388Z,102455.05
2017-05-15T11:42:50.907Z,102456.16
2017-05-15T11:45:18.478Z,102458.38
2017-05-15T11:47:46.087Z,102455.62
2017-05-15T11:50:13.756Z,102460.41
2017-05-15T11:52:41.307Z,102452.78
2017-05-15T11:55:08.921Z,102453.79
2017-05-15T11:57:36.489Z,102455.62
2017-05-15T12:00:04.018Z,102454.88
2017-05-15T12:02:31.701Z,102458.02
2017-05-15T12:04:59.237Z,102449.02
2017-05-15T12:07:26.763Z,102443.13
2017-05-15T12:09:54.348Z,102452.61
2017-05-15T12:12:21.913Z,102452.61
2017-05-15T12:14:49.475Z,102449.52
2017-05-15T12:17:17.026Z,102445.50
2017-05-15T12:19:44.755Z,102444.35
2017-05-15T12:22:12.303Z,102438.10
2017-05-15T12:24:39.831Z,102442.61
2017-05-15T12:27:07.424Z,102446.09
2017-05-15T12:29:34.946Z,102446.02
2017-05-15T12:32:02.769Z,102452.64
2017-05-15T12:34:30.308Z,102449.43
2017-05-15T12:36:57.939Z,102443.91
2017-05-15T12:39:25.501Z,102456.18
2017-05-15T12:41:53.045Z,102446.80
2017-05-15T12:44:20.849Z,102450.16
2017-05-15T12:46:48.377Z,102449.27
2017-05-15T12:49:15.972Z,102443.63
2017-05-15T12:51:43.619Z,102438.27
2017-05-15T12:54:11.139Z,102433.87
2017-05-15T12:56:38.711Z,102434.58
2017-05-15T12:59:06.231Z,102434.50
2017-05-15T13:01:34.128Z,102431.17
2017-05-15T13:04:01.662Z,102436.92
2017-05-15T13:06:29.209Z,102429.60
2017-05-15T13:08:56.787Z,102423.48
2017-05-15T13:11:24.305Z,102421.23
2017-05-15T13:13:51.864Z,102421.91
2017-05-15T13:16:19.422Z,102431.39
2017-05-15T13:18:47.180Z,102422.30
2017-05-15T13:21:14.712Z,102430.40
2017-05-15T13:23:42.222Z,102422.73
2017-05-15T13:26:09.772Z,102423.31
2017-05-15T13:28:37.336Z,102424.73
2017-05-15T13:31:04.946Z,102423.69
2017-05-15T13:33:32.555Z,102423.52
2017-05-15T13:36:00.199Z,102429.58
2017-05-15T13:38:27.718Z,102416.27
2017-05-15T13:40:55.397Z,102418.47
2017-05-15T13:43:22.913Z,102418.62
2017-05-15T13:45:50.496Z,102414.80
2017-05-15T13:48:18.071Z,102413.21
2017-05-15T13:50:45.593Z,102401.27
2017-05-15T13:53:13.260Z,102404.73
2017-05-15T13:55:40.788Z,102398.52
2017-05-15T13:58:08.420Z,102391.45
2017-05-15T14:00:35.983Z,102394.06
2017-05-15T14:03:03.548Z,102383.07
2017-05-15T14:05:31.167Z,102384.55
2017-05-15T14:07:58.939Z,102381.77
2017-05-15T14:10:26.503Z,102378.56
2017-05-15T14:12:54.016Z,102381.84
2017-05-15T14:15:21.683Z,102382.08
2017-05-15T14:17:49.204Z,102376.23
2017-05-15T14:20:16.720Z,102376.52
2017-05-15T14:22:44.672Z,102377.32
2017-05-15T14:25:12.205Z,102370.06
2017-05-15T14:27:39.732Z,102381.53
2017-05-15T14:30:07.288Z,102377.11
2017-05-15T14:32:34.805Z,102379.54
2017-05-15T14:35:02.480Z,102378.47
2017-05-15T14:37:30.011Z,102374.59
2017-05-15T14:39:57.528Z,102367.80
2017-05-15T14:42:25.123Z,102370.56
2017-05-15T14:44:52.648Z,102364.08
2017-05-15T14:47:20.292Z,102369.70
2017-05-15T14:49:47.876Z,102368.27
2017-05-15T14:52:15.427Z,102369.41
2017-05-15T14:54:42.967Z,102363.13
2017-05-15T14:57:10.657Z,102366.09
2017-05-15T14:59:38.184Z,102369.41
2017-05-15T15:02:05.811Z,102371.20
2017-05-15T15:04:33.339Z,102370.30
2017-05-15T15:07:00.868Z,102361.71
2017-05-15T15:09:28.420Z,102366.02
2017-05-15T15:11:55.952Z,102359.17
2017-05-15T15:14:23.617Z,102357.69
2017-05-15T15:16:51.157Z,102351.69
2017-05-15T15:19:18.667Z,102354.28
2017-05-15T15:21:46.224Z,102351.84
2017-05-15T15:24:13.761Z,102346.08
2017-05-15T15:26:41.696Z,102343.70
2017-05-15T15:29:09.261Z,102342.89
2017-05-15T15:31:36.780Z,102346.09
2017-05-15T15:34:04.343Z,102343.66
2017-05-15T15:36:31.871Z,102339.91
2017-05-15T15:38:59.540Z,102336.07
2017-05-15T15:41:27.072Z,102329.99
2017-05-15T15:43:54.591Z,102321.23
2017-05-15T15:46:22.181Z,102331.09
2017-05-15T15:48:49.703Z,102331.23
2017-05-15T15:51:17.580Z,102334.02
2017-05-15T15:53:45.123Z,102333.97
2017-05-15T15:56:12.726Z,102336.74
2017-05-15T15:58:40.343Z,102328.92
2017-05-15T16:01:08.003Z,102330.84
2017-05-15T16:03:35.705Z,102329.16
2017-05-15T16:06:03.300Z,102332.47
2017-05-15T16:08:30.816Z,102336.42
2017-05-15T16:10:58.381Z,102327.46
2017-05-15T16:13:25.906Z,102325.37
2017-05-15T16:15:53.484Z,102325.65
2017-05-15T16:18:21.043Z,102326.25
2017-05-15T16:20:48.707Z,102324.86
2017-05-15T16:23:16.266Z,102326.36
2017-05-15T16:25:43.813Z,102330.20
2017-05-15T16:28:11.392Z,102323.53
2017-05-15T16:30:38.992Z,102323.66
2017-05-15T16:33:06.871Z,102330.59
2017-05-15T16:35:34.393Z,102320.36
2017-05-15T16:38:01.920Z,102324.38
2017-05-15T16:40:29.477Z,102327.00
2017-05-15T16:42:57.004Z,102331.02
2017-05-15T16:45:24.669Z,102329.60
2017-05-15T16:47:52.204Z,102324.44
2017-05-15T16:50:19.753Z,102327.48
2017-05-15T16:52:47.319Z,102326.73
2017-05-15T16:55:14.912Z,102329.93
2017-05-15T16:57:42.494Z,102329.38
2017-05-15T17:00:10.016Z,102330.83
2017-05-15T17:02:37.587Z,102318.73
2017-05-15T17:05:05.129Z,102322.17
2017-05-15T17:07:32.836Z,102317.39
2017-05-15T17:10:00.386Z,102319.19
2017-05-15T17:12:28.205Z,102310.70
2017-05-15T17:14:56.275Z,102311.98
2017-05-15T17:17:23.796Z,102310.83
2017-05-15T17:19:51.493Z,102309.19
2017-05-15T17:22:19.027Z,102306.09
2017-05-15T17:24:46.548Z,102302.47
2017-05-15T17:27:14.123Z,102306.17
2017-05-15T17:29:41.722Z,102301.50
2017-05-15T17:32:09.419Z,102301.09
2017-05-15T17:34:37.170Z,102308.25
2017-05-15T17:37:05.189Z,102307.75
2017-05-15T17:39:33.033Z,102307.19
2017-05-15T17:42:00.838Z,102302.11
2017-05-15T17:44:28.690Z,102306.16
2017-05-15T17:46:56.497Z,102301.84
2017-05-15T17:49:24.357Z,102301.70
2017-05-15T17:51:52.186Z,102299.80
2017-05-15T17:54:20.489Z,102301.66
2017-05-15T17:56:48.355Z,102303.12
2017-05-15T17:59:16.160Z,102298.77
2017-05-15T18:01:44.032Z,102297.59
2017-05-15T18:04:11.854Z,102297.45
2017-05-15T18:06:39.723Z,102294.20
2017-05-15T18:09:07.581Z,102301.63
2017-05-15T18:11:35.419Z,102301.02
2017-05-15T18:14:03.376Z,102308.48
2017-05-15T18:16:31.211Z,102308.90
2017-05-15T18:18:59.066Z,102300.57
2017-05-15T18:21:26.895Z,102308.41
2017-05-15T18:23:54.741Z,102311.09
2017-05-15T18:26:22.748Z,102310.84
2017-05-15T18:28:50.551Z,102311.47
2017-05-15T18:31:18.401Z,102318.11
2017-05-15T18:33:46.269Z,102323.70
2017-05-15T18:36:14.104Z,102319.90
2017-05-15T18:38:41.989Z,102319.79
2017-05-15T18:41:09.858Z,102323.12
2017-05-15T18:43:38.528Z,102326.66
2017-05-15T18:46:06.339Z,102328.45
2017-05-15T18:48:34.277Z,102326.12
2017-05-15T18:51:02.102Z,102330.09
2017-05-15T18:53:29.923Z,102331.09
2017-05-15T18:55:57.778Z,102328.99
2017-05-15T18:58:25.605Z,102330.76
2017-05-15T19:00:53.581Z,102328.22
2017-05-15T19:03:21.401Z,102332.00
2017-05-15T19:05:49.437Z,102326.83
2017-05-15T19:08:17.289Z,102331.86
2017-05-15T19:10:45.460Z,102336.98
2017-05-15T19:13:13.364Z,102335.25
2017-05-15T19:15:41.234Z,102336.92
2017-05-15T19:18:09.102Z,102340.62
2017-05-15T19:20:36.980Z,102341.48
2017-05-15T19:23:05.067Z,102342.63
2017-05-15T19:25:33.070Z,102348.79
2017-05-15T19:28:01.013Z,102347.46
2017-05-15T19:30:28.986Z,102349.11
2017-05-15T19:32:56.720Z,102348.86
2017-05-15T19:35:24.329Z,102350.02
2017-05-15T19:37:51.893Z,102351.19
2017-05-15T19:40:19.475Z,102358.67
2017-05-15T19:42:47.028Z,102356.02
2017-05-15T19:45:14.716Z,102358.08
2017-05-15T19:47:42.241Z,102360.44
2017-05-15T19:50:09.777Z,102362.31
2017-05-15T19:52:37.419Z,102362.88
2017-05-15T19:55:04.948Z,102363.22
2017-05-15T19:57:32.516Z,102369.27
2017-05-15T20:00:00.055Z,102371.95
2017-05-15T20:02:27.632Z,102368.03
2017-05-15T20:04:55.172Z,102371.02
2017-05-15T20:07:22.866Z,102368.78
2017-05-15T20:09:50.355Z,102369.82
2017-05-15T20:12:17.869Z,102372.16
2017-05-15T20:14:45.447Z,102376.27
2017-05-15T20:17:12.968Z,102373.33
2017-05-15T20:19:40.652Z,102370.87
2017-05-15T20:22:08.201Z,102369.18
2017-05-15T20:24:35.722Z,102372.34
2017-05-15T20:27:03.292Z,102366.84
2017-05-15T20:29:30.893Z,102364.65
2017-05-15T20:31:58.461Z,102368.65
2017-05-15T20:34:25.998Z,102364.19
2017-05-15T20:36:53.584Z,102367.69
2017-05-15T20:39:21.114Z,102367.03
2017-05-15T20:41:48.860Z,102359.63
2017-05-15T20:44:16.516Z,102363.77
2017-05-15T20:46:44.076Z,102360.05
2017-05-15T20:49:11.685Z,102358.48
2017-05-15T20:51:39.230Z,102355.76
2017-05-15T20:54:06.804Z,102358.05
2017-05-15T20:56:34.386Z,102356.96
2017-05-15T20:59:02.367Z,102357.62
2017-05-15T21:01:29.904Z,102352.30
2017-05-15T21:03:57.488Z,102355.45
2017-05-15T21:06:25.051Z,102361.16
2017-05-15T21:08:52.577Z,102364.24
2017-05-15T21:11:20.144Z,102364.77
2017-05-15T21:13:47.649Z,102362.64
2017-05-15T21:16:15.348Z,102363.17
2017-05-15T21:18:42.872Z,102368.45
2017-05-15T21:21:10.412Z,102368.06
2017-05-15T21:23:37.980Z,102363.66
2017-05-15T21:26:05.513Z,102360.99
2017-05-15T21:28:33.099Z,102363.36
2017-05-15T21:31:00.640Z,102361.55
2017-05-15T21:33:28.351Z,102365.44
2017-05-15T21:35:55.876Z,102364.55
2017-05-15T21:38:23.412Z,102364.17
2017-05-15T21:40:51.104Z,102360.66
2017-05-15T21:43:18.619Z,102361.69
2017-05-15T21:45:46.180Z,102360.05
2017-05-15T21:48:13.701Z,102362.34
2017-05-15T21:50:41.408Z,102366.09
2017-05-15T21:53:08.935Z,102363.81
2017-05-15T21:55:36.465Z,102361.32
2017-05-15T21:58:04.168Z,102362.31
2017-05-15T22:00:31.689Z,102363.39
2017-05-15T22:02:59.348Z,102362.77
2017-05-15T22:05:26.903Z,102358.61
2017-05-15T22:07:54.431Z,102358.93
2017-05-15T22:10:22.087Z,102359.16
2017-05-15T22:12:49.694Z,102357.51
2017-05-15T22:15:17.248Z,102362.41
2017-05-15T22:17:44.795Z,102365.76
2017-05-15T22:20:12.315Z,102364.44
2017-05-15T22:22:39.967Z,102360.89
2017-05-15T22:25:07.495Z,102366.11
2017-05-15T22:27:35.004Z,102366.38
2017-05-15T22:30:02.560Z,102362.59
2017-05-15T22:32:30.087Z,102363.18
2017-05-15T22:34:58.016Z,102359.50
2017-05-15T22:37:25.523Z,102358.00
2017-05-15T22:39:53.070Z,102361.11
2017-05-15T22:42:20.628Z,102367.97
2017-05-15T22:44:48.156Z,102367.12
2017-05-15T22:47:15.731Z,102363.84
2017-05-15T22:49:43.256Z,102364.31
2017-05-15T22:52:10.855Z,102357.52
2017-05-15T22:54:38.372Z,102360.79
2017-05-15T22:57:05.939Z,102358.16
2017-05-15T22:59:33.472Z,102356.95
2017-05-15T23:02:01.148Z,102361.61
2017-05-15T23:04:28.660Z,102368.76
2017-05-15T23:06:56.181Z,102357.50
2017-05-15T23:09:23.732Z,102361.17
2017-05-15T23:11:51.292Z,102363.08
2017-05-15T23:14:18.911Z,102363.31
2017-05-15T23:16:46.496Z,102364.39
2017-05-15T23:19:14.166Z,102364.39
2017-05-15T23:21:41.693Z,102355.53
2017-05-15T23:24:09.215Z,102355.23
2017-05-15T23:26:36.816Z,102354.59
2017-05-15T23:29:04.379Z,102350.36
2017-05-15T23:31:31.961Z,102356.02
2017-05-15T23:33:59.473Z,102349.88
2017-05-15T23:36:27.150Z,102350.23
2017-05-15T23:38:54.686Z,102350.36
2017-05-15T23:41:22.200Z,102352.16
2017-05-15T23:43:49.849Z,102347.00
2017-05-15T23:46:17.371Z,102346.56
2017-05-15T23:48:44.924Z,102345.88
2017-05-15T23:51:12.457Z,102342.23
2017-05-15T23:53:40.177Z,102339.22
2017-05-15T23:56:07.683Z,102343.70
2017-05-15T23:58:35.189Z,102338.30
